createdAt,value
2017-09-14T00:01:52.722Z,99.90
2017-09-14T00:04:20.584Z,99.90
2017-09-14T00:06:48.447Z,99.90
2017-09-14T00:09:17.129Z,99.90
2017-09-14T00:11:44.994Z,99.90
2017-09-14T00:14:12.857Z,99.90
2017-09-14T00:16:40.721Z,99.90
2017-09-14T00:19:08.584Z,99.90
2017-09-14T00:21:36.449Z,99.90
2017-09-14T00:24:04.313Z,99.90
2017-09-14T00:26:32.176Z,99.90
2017-09-14T00:29:00.041Z,99.90
2017-09-14T00:31:27.910Z,99.90
2017-09-14T00:33:56.592Z,99.90
2017-09-14T00:36:24.349Z,99.90
2017-09-14T00:38:52.214Z,99.90
2017-09-14T00:41:20.076Z,99.90
2017-09-14T00:43:47.942Z,99.90
2017-09-14T00:46:16.625Z,99.90
2017-09-14T00:48:44.385Z,99.90
2017-09-14T00:51:12.250Z,99.90
2017-09-14T00:53:40.113Z,99.90
2017-09-14T00:56:07.977Z,99.90
2017-09-14T00:58:35.857Z,99.90
2017-09-14T01:01:03.708Z,99.90
2017-09-14T01:03:31.568Z,99.90
2017-09-14T01:05:59.433Z,99.90
2017-09-14T01:08:27.298Z,99.90
2017-09-14T01:10:55.161Z,99.90
2017-09-14T01:13:23.029Z,99.90
2017-09-14T01:15:50.888Z,99.90
2017-09-14T01:18:18.753Z,99.90
2017-09-14T01:20:46.616Z,99.90
2017-09-14T01:23:14.481Z,99.90
2017-09-14T01:25:42.345Z,99.90
2017-09-14T01:28:10.208Z,99.90
2017-09-14T01:30:38.072Z,99.90
2017-09-14T01:33:05.937Z,99.90
2017-09-14T01:35:33.770Z,99.90
2017-09-14T01:38:01.664Z,99.90
2017-09-14T01:40:29.530Z,99.90
2017-09-14T01:42:57.393Z,99.90
2017-09-14T01:45:25.256Z,99.90
2017-09-14T01:47:53.121Z,99.90
2017-09-14T01:50:20.984Z,99.90
2017-09-14T01:52:48.849Z,99.90
2017-09-14T01:55:16.711Z,99.90
2017-09-14T01:57:44.575Z,99.90
2017-09-14T02:00:12.440Z,99.90
2017-09-14T02:02:40.304Z,99.90
2017-09-14T02:05:08.167Z,99.90
2017-09-14T02:07:36.037Z,99.90
2017-09-14T02:10:03.896Z,99.90
2017-09-14T02:12:31.760Z,99.90
2017-09-14T02:14:59.623Z,99.90
2017-09-14T02:17:27.488Z,99.90
2017-09-14T02:19:55.351Z,99.90
2017-09-14T02:22:23.215Z,99.90
2017-09-14T02:24:51.079Z,99.90
2017-09-14T02:27:18.943Z,99.90
2017-09-14T02:29:46.807Z,99.90
2017-09-14T02:32:14.670Z,99.90
2017-09-14T02:34:42.536Z,99.90
2017-09-14T02:37:10.399Z,99.90
2017-09-14T02:39:38.262Z,99.90
2017-09-14T02:42:06.125Z,99.90
2017-09-14T02:44:33.991Z,99.90
2017-09-14T02:47:01.853Z,99.90
2017-09-14T02:49:29.724Z,99.90
2017-09-14T02:51:58.400Z,99.90
2017-09-14T02:54:26.264Z,99.90
2017-09-14T02:56:54.129Z,99.90
2017-09-14T02:59:21.993Z,99.90
2017-09-14T03:01:50.579Z,99.90
2017-09-14T03:04:18.438Z,99.90
2017-09-14T03:06:46.302Z,99.90
2017-09-14T03:09:14.166Z,99.90
2017-09-14T03:11:42.029Z,99.90
2017-09-14T03:14:09.893Z,99.90
2017-09-14T03:16:37.725Z,99.90
2017-09-14T03:19:05.588Z,99.90
2017-09-14T03:21:33.383Z,99.90
2017-09-14T03:24:01.247Z,99.90
2017-09-14T03:26:29.110Z,99.90
2017-09-14T03:28:57.282Z,99.90
2017-09-14T03:31:25.149Z,99.90
2017-09-14T03:33:53.011Z,99.90
2017-09-14T03:36:20.872Z,99.90
2017-09-14T03:38:48.738Z,99.90
2017-09-14T03:41:16.604Z,99.90
2017-09-14T03:43:44.464Z,99.90
2017-09-14T03:46:12.226Z,99.90
2017-09-14T03:48:39.990Z,99.90
2017-09-14T03:51:07.852Z,99.90
2017-09-14T03:53:35.691Z,99.90
2017-09-14T03:56:03.578Z,99.90
2017-09-14T03:58:31.443Z,99.90
2017-09-14T04:00:59.307Z,99.90
2017-09-14T04:03:27.171Z,99.90
2017-09-14T04:05:55.036Z,99.90
2017-09-14T04:08:22.899Z,99.90
2017-09-14T04:10:50.763Z,99.90
2017-09-14T04:13:18.627Z,99.90
2017-09-14T04:15:46.491Z,99.90
2017-09-14T04:18:14.252Z,99.90
2017-09-14T04:20:42.116Z,99.90
2017-09-14T04:23:09.980Z,99.90
2017-09-14T04:25:37.848Z,99.90
2017-09-14T04:28:05.678Z,99.90
2017-09-14T04:30:33.469Z,99.90
2017-09-14T04:33:01.334Z,99.90
2017-09-14T04:35:29.197Z,99.90
2017-09-14T04:37:57.061Z,99.90
2017-09-14T04:40:24.927Z,99.90
2017-09-14T04:42:52.789Z,99.90
2017-09-14T04:45:20.657Z,99.90
2017-09-14T04:47:49.243Z,99.90
2017-09-14T04:50:17.820Z,99.90
2017-09-14T04:52:46.395Z,99.90
2017-09-14T04:55:14.260Z,99.90
2017-09-14T04:57:42.126Z,99.90
2017-09-14T05:00:09.987Z,99.90
2017-09-14T05:02:37.851Z,99.90
2017-09-14T05:05:05.685Z,99.90
2017-09-14T05:07:33.477Z,99.90
2017-09-14T05:10:01.342Z,99.90
2017-09-14T05:12:29.205Z,99.90
2017-09-14T05:14:57.072Z,99.90
2017-09-14T05:17:24.931Z,99.90
2017-09-14T05:19:52.797Z,99.90
2017-09-14T05:22:20.658Z,99.90
2017-09-14T05:24:49.445Z,99.90
2017-09-14T05:27:17.309Z,99.90
2017-09-14T05:29:45.173Z,99.90
2017-09-14T05:32:13.037Z,99.90
2017-09-14T05:34:40.906Z,99.90
2017-09-14T05:37:08.765Z,99.90
2017-09-14T05:39:36.628Z,99.90
2017-09-14T05:42:04.492Z,99.90
2017-09-14T05:44:32.358Z,99.90
2017-09-14T05:47:00.221Z,99.90
2017-09-14T05:49:28.086Z,99.90
2017-09-14T05:51:56.050Z,99.90
2017-09-14T05:54:23.915Z,99.90
2017-09-14T05:56:51.779Z,99.90
2017-09-14T05:59:19.644Z,99.90
2017-09-14T06:01:47.517Z,99.90
2017-09-14T06:04:15.371Z,99.90
2017-09-14T06:06:43.235Z,99.90
2017-09-14T06:09:11.099Z,99.90
2017-09-14T06:11:38.909Z,99.90
2017-09-14T06:14:06.671Z,99.90
2017-09-14T06:16:34.429Z,99.90
2017-09-14T06:19:02.223Z,99.90
2017-09-14T06:21:29.989Z,99.90
2017-09-14T06:23:57.813Z,99.90
2017-09-14T06:26:25.601Z,99.90
2017-09-14T06:28:53.367Z,99.90
2017-09-14T06:31:21.164Z,99.90
2017-09-14T06:33:48.928Z,99.90
2017-09-14T06:36:16.759Z,99.90
2017-09-14T06:38:44.515Z,99.90
2017-09-14T06:41:12.326Z,99.90
2017-09-14T06:43:40.149Z,99.90
2017-09-14T06:46:07.927Z,99.90
2017-09-14T06:48:35.738Z,99.90
2017-09-14T06:51:03.531Z,99.90
2017-09-14T06:53:31.303Z,99.90
2017-09-14T06:55:59.119Z,99.90
2017-09-14T06:58:26.925Z,99.90
2017-09-14T07:00:54.792Z,99.90
2017-09-14T07:03:22.555Z,99.90
2017-09-14T07:05:50.321Z,99.90
2017-09-14T07:08:18.114Z,99.90
2017-09-14T07:10:46.659Z,99.90
2017-09-14T07:13:14.492Z,99.90
2017-09-14T07:15:42.272Z,99.90
2017-09-14T07:18:10.044Z,99.90
2017-09-14T07:20:37.846Z,99.90
2017-09-14T07:23:06.400Z,99.80
2017-09-14T07:25:34.234Z,99.80
2017-09-14T07:28:01.991Z,99.60
2017-09-14T07:30:29.757Z,98.10
2017-09-14T07:32:58.320Z,98.00
2017-09-14T07:35:26.093Z,98.00
2017-09-14T07:37:54.703Z,97.90
2017-09-14T07:40:22.469Z,97.80
2017-09-14T07:42:50.229Z,96.60
2017-09-14T07:45:18.049Z,97.00
2017-09-14T07:47:45.808Z,97.20
2017-09-14T07:50:13.827Z,97.10
2017-09-14T07:52:41.596Z,95.40
2017-09-14T07:55:09.375Z,95.20
2017-09-14T07:57:37.940Z,94.50
2017-09-14T08:00:05.752Z,94.40
2017-09-14T08:02:33.582Z,93.40
2017-09-14T08:05:02.123Z,94.20
2017-09-14T08:07:29.926Z,94.20
2017-09-14T08:09:59.512Z,94.70
2017-09-14T08:12:27.323Z,94.70
2017-09-14T08:14:55.146Z,97.10
2017-09-14T08:17:22.902Z,95.70
2017-09-14T08:19:50.687Z,97.70
2017-09-14T08:22:19.254Z,98.70
2017-09-14T08:24:47.781Z,99.50
2017-09-14T08:27:15.612Z,99.60
2017-09-14T08:29:44.138Z,99.40
2017-09-14T08:32:11.926Z,99.40
2017-09-14T08:34:39.850Z,99.30
2017-09-14T08:37:07.637Z,99.30
2017-09-14T08:39:35.397Z,98.40
2017-09-14T08:42:03.193Z,99.50
2017-09-14T08:44:31.730Z,99.90
2017-09-14T08:46:59.498Z,99.90
2017-09-14T08:49:27.315Z,99.90
2017-09-14T08:51:55.095Z,98.80
2017-09-14T08:54:22.873Z,99.60
2017-09-14T08:56:50.718Z,97.10
2017-09-14T08:59:18.483Z,96.70
2017-09-14T09:01:46.250Z,97.60
2017-09-14T09:04:14.102Z,98.10
2017-09-14T09:06:41.877Z,97.10
2017-09-14T09:09:09.647Z,97.20
2017-09-14T09:11:37.454Z,98.00
2017-09-14T09:14:05.983Z,98.80
2017-09-14T09:16:33.799Z,98.80
2017-09-14T09:19:02.330Z,99.90
2017-09-14T09:21:30.862Z,99.40
2017-09-14T09:23:59.411Z,98.80
2017-09-14T09:26:27.184Z,98.80
2017-09-14T09:28:54.999Z,99.40
2017-09-14T09:31:22.774Z,99.90
2017-09-14T09:33:50.595Z,99.90
2017-09-14T09:36:18.402Z,99.90
2017-09-14T09:38:46.162Z,99.20
2017-09-14T09:41:13.990Z,99.90
2017-09-14T09:43:42.529Z,99.90
2017-09-14T09:46:10.300Z,99.90
2017-09-14T09:48:38.096Z,99.90
2017-09-14T09:51:06.644Z,99.90
2017-09-14T09:53:34.463Z,99.90
2017-09-14T09:56:02.250Z,99.90
2017-09-14T09:58:30.007Z,99.90
2017-09-14T10:00:57.793Z,99.90
2017-09-14T10:03:25.546Z,99.90
2017-09-14T10:05:53.378Z,99.90
2017-09-14T10:08:21.156Z,99.90
2017-09-14T10:10:48.916Z,99.90
2017-09-14T10:13:16.730Z,99.90
2017-09-14T10:15:45.261Z,99.90
2017-09-14T10:18:13.097Z,99.90
2017-09-14T10:20:40.858Z,99.90
2017-09-14T10:23:08.646Z,99.90
2017-09-14T10:25:36.446Z,99.90
2017-09-14T10:28:04.972Z,99.90
2017-09-14T10:30:32.807Z,99.90
2017-09-14T10:33:00.584Z,99.90
2017-09-14T10:35:28.340Z,99.90
2017-09-14T10:37:56.152Z,99.90
2017-09-14T10:40:23.908Z,99.90
2017-09-14T10:42:51.739Z,99.10
2017-09-14T10:45:19.509Z,98.90
2017-09-14T10:47:47.262Z,99.10
2017-09-14T10:50:15.052Z,98.50
2017-09-14T10:52:43.619Z,97.50
2017-09-14T10:55:11.430Z,97.50
2017-09-14T10:57:39.955Z,95.80
2017-09-14T11:00:07.718Z,95.80
2017-09-14T11:02:35.515Z,99.60
2017-09-14T11:05:03.288Z,96.00
2017-09-14T11:07:31.899Z,94.00
2017-09-14T11:09:59.669Z,94.00
2017-09-14T11:12:27.427Z,96.40
2017-09-14T11:14:55.229Z,94.30
2017-09-14T11:17:22.985Z,94.50
2017-09-14T11:19:50.811Z,93.10
2017-09-14T11:22:19.337Z,93.80
2017-09-14T11:24:47.111Z,93.60
2017-09-14T11:27:14.943Z,93.30
2017-09-14T11:29:42.694Z,93.00
2017-09-14T11:32:10.537Z,92.90
2017-09-14T11:34:38.315Z,90.50
2017-09-14T11:37:06.842Z,90.10
2017-09-14T11:39:34.640Z,90.10
2017-09-14T11:42:02.401Z,89.80
2017-09-14T11:44:30.221Z,89.70
2017-09-14T11:46:57.982Z,89.40
2017-09-14T11:49:25.737Z,87.60
2017-09-14T11:51:53.526Z,88.80
2017-09-14T11:54:22.067Z,87.70
2017-09-14T11:56:49.891Z,87.60
2017-09-14T11:59:17.710Z,88.60
2017-09-14T12:01:45.489Z,86.90
2017-09-14T12:04:14.056Z,88.00
2017-09-14T12:06:41.835Z,87.90
2017-09-14T12:09:09.662Z,86.90
2017-09-14T12:11:37.419Z,87.00
2017-09-14T12:14:05.187Z,82.20
2017-09-14T12:16:32.977Z,80.00
2017-09-14T12:19:00.734Z,81.00
2017-09-14T12:21:28.547Z,79.00
2017-09-14T12:23:56.339Z,78.40
2017-09-14T12:26:24.101Z,78.80
2017-09-14T12:28:51.895Z,82.30
2017-09-14T12:31:20.420Z,77.70
2017-09-14T12:33:48.238Z,77.80
2017-09-14T12:36:16.775Z,77.10
2017-09-14T12:38:44.544Z,77.80
2017-09-14T12:41:12.334Z,72.70
2017-09-14T12:43:40.099Z,76.70
2017-09-14T12:46:07.923Z,68.00
2017-09-14T12:48:35.682Z,62.40
2017-09-14T12:51:03.444Z,67.10
2017-09-14T12:53:31.244Z,60.90
2017-09-14T12:55:59.008Z,62.90
2017-09-14T12:58:26.836Z,55.90
2017-09-14T13:00:54.588Z,56.30
2017-09-14T13:03:22.357Z,59.00
2017-09-14T13:05:50.143Z,59.30
2017-09-14T13:08:17.926Z,57.00
2017-09-14T13:10:46.507Z,56.30
2017-09-14T13:13:15.063Z,57.20
2017-09-14T13:15:42.831Z,57.20
2017-09-14T13:18:10.632Z,58.10
2017-09-14T13:20:38.390Z,61.70
2017-09-14T13:23:06.211Z,63.00
2017-09-14T13:25:33.970Z,66.00
2017-09-14T13:28:01.756Z,69.00
2017-09-14T13:30:29.608Z,67.80
2017-09-14T13:32:57.363Z,69.60
2017-09-14T13:35:25.186Z,69.30
2017-09-14T13:37:52.980Z,72.80
2017-09-14T13:40:20.766Z,74.50
2017-09-14T13:42:49.386Z,71.80
2017-09-14T13:45:17.151Z,71.80
2017-09-14T13:47:44.975Z,73.10
2017-09-14T13:50:13.489Z,77.40
2017-09-14T13:52:41.239Z,77.00
2017-09-14T13:55:09.033Z,74.80
2017-09-14T13:57:36.796Z,75.00
2017-09-14T14:00:04.634Z,81.10
2017-09-14T14:02:32.413Z,78.80
2017-09-14T14:05:00.179Z,78.90
2017-09-14T14:07:28.010Z,83.40
2017-09-14T14:09:55.787Z,85.10
2017-09-14T14:12:23.639Z,87.90
2017-09-14T14:14:51.399Z,87.70
2017-09-14T14:17:19.164Z,89.60
2017-09-14T14:19:46.959Z,89.20
2017-09-14T14:22:14.715Z,89.80
2017-09-14T14:24:42.546Z,89.10
2017-09-14T14:27:10.321Z,89.10
2017-09-14T14:29:38.088Z,89.10
2017-09-14T14:32:05.881Z,88.00
2017-09-14T14:34:33.656Z,88.90
2017-09-14T14:37:01.476Z,87.20
2017-09-14T14:39:29.244Z,87.80
2017-09-14T14:41:57.007Z,85.90
2017-09-14T14:44:25.617Z,86.10
2017-09-14T14:46:53.368Z,86.20
2017-09-14T14:49:21.193Z,84.40
2017-09-14T14:51:48.952Z,82.50
2017-09-14T14:54:16.715Z,82.20
2017-09-14T14:56:44.506Z,80.50
2017-09-14T14:59:12.276Z,80.70
2017-09-14T15:01:40.094Z,83.60
2017-09-14T15:04:07.857Z,80.40
2017-09-14T15:06:35.619Z,79.80
2017-09-14T15:09:03.426Z,81.80
2017-09-14T15:11:31.203Z,82.80
2017-09-14T15:13:59.194Z,81.10
2017-09-14T15:16:27.712Z,82.00
2017-09-14T15:18:55.472Z,81.90
2017-09-14T15:21:23.285Z,83.40
2017-09-14T15:23:51.840Z,83.40
2017-09-14T15:26:19.675Z,83.50
2017-09-14T15:28:47.455Z,84.50
2017-09-14T15:31:15.244Z,87.70
2017-09-14T15:33:43.035Z,84.40
2017-09-14T15:36:11.577Z,85.10
2017-09-14T15:38:45.085Z,85.10
2017-09-14T15:41:18.400Z,86.30
2017-09-14T15:44:04.774Z,84.90
2017-09-14T15:46:32.533Z,84.90
2017-09-14T15:49:05.896Z,85.80
2017-09-14T15:51:39.305Z,85.50
2017-09-14T15:54:07.125Z,86.70
2017-09-14T15:56:34.881Z,86.50
2017-09-14T15:59:02.673Z,86.20
2017-09-14T16:01:30.467Z,86.00
2017-09-14T16:03:58.222Z,87.10
2017-09-14T16:06:26.031Z,90.80
2017-09-14T16:08:53.784Z,91.70
2017-09-14T16:14:03.762Z,92.40
2017-09-14T16:16:31.545Z,93.10
2017-09-14T16:18:59.378Z,93.40
2017-09-14T16:21:27.194Z,94.60
2017-09-14T16:23:54.995Z,94.90
2017-09-14T16:26:23.586Z,95.90
2017-09-14T16:28:51.355Z,96.00
2017-09-14T16:31:19.181Z,97.50
2017-09-14T16:33:47.021Z,98.00
2017-09-14T16:36:14.884Z,98.70
2017-09-14T16:38:42.744Z,99.40
2017-09-14T16:41:10.499Z,99.30
2017-09-14T16:43:38.337Z,99.80
2017-09-14T16:46:06.100Z,99.90
2017-09-14T16:48:33.879Z,99.90
2017-09-14T16:51:01.695Z,99.80
2017-09-14T16:53:30.228Z,99.90
2017-09-14T16:55:58.071Z,99.90
2017-09-14T16:58:27.629Z,99.90
2017-09-14T17:00:56.218Z,99.90
2017-09-14T17:03:24.832Z,99.90
2017-09-14T17:05:52.622Z,99.90
2017-09-14T17:08:20.573Z,99.90
2017-09-14T17:10:48.368Z,99.90
2017-09-14T17:13:16.932Z,99.80
2017-09-14T17:15:44.725Z,99.90
2017-09-14T17:18:12.519Z,99.90
2017-09-14T17:20:40.347Z,99.90
2017-09-14T17:23:09.028Z,97.00
2017-09-14T17:25:36.964Z,96.90
2017-09-14T17:28:04.884Z,95.00
2017-09-14T17:30:32.657Z,95.00
2017-09-14T17:33:00.509Z,94.30
2017-09-14T17:35:28.306Z,94.20
2017-09-14T17:37:56.233Z,93.90
2017-09-14T17:40:24.089Z,94.50
2017-09-14T17:42:52.605Z,93.90
2017-09-14T17:45:20.430Z,93.80
2017-09-14T17:47:48.962Z,93.40
2017-09-14T17:50:16.748Z,93.50
2017-09-14T17:52:44.558Z,93.00
2017-09-14T17:55:12.316Z,92.60
2017-09-14T17:57:40.136Z,92.00
2017-09-14T18:00:07.980Z,92.50
2017-09-14T18:02:36.661Z,92.10
2017-09-14T18:05:04.716Z,92.10
2017-09-14T18:07:32.633Z,92.50
2017-09-14T18:10:01.293Z,92.10
2017-09-14T18:12:29.234Z,92.10
2017-09-14T18:14:56.999Z,92.00
2017-09-14T18:17:24.788Z,91.80
2017-09-14T18:19:52.573Z,92.30
2017-09-14T18:22:21.197Z,92.30
2017-09-14T18:24:49.053Z,92.30
2017-09-14T18:27:16.807Z,92.50
2017-09-14T18:29:44.597Z,91.90
2017-09-14T18:32:12.384Z,92.30
2017-09-14T18:34:40.223Z,92.40
2017-09-14T18:37:08.065Z,92.50
2017-09-14T18:39:36.601Z,92.30
2017-09-14T18:42:05.175Z,92.60
2017-09-14T18:47:14.944Z,92.70
2017-09-14T18:49:43.492Z,92.60
2017-09-14T18:52:11.272Z,92.60
2017-09-14T18:54:39.084Z,92.50
2017-09-14T18:57:06.852Z,92.80
2017-09-14T18:59:34.664Z,92.70
2017-09-14T19:02:02.433Z,92.80
2017-09-14T19:04:30.981Z,92.90
2017-09-14T19:06:58.790Z,92.90
2017-09-14T19:09:27.501Z,93.10
2017-09-14T19:11:55.437Z,93.10
2017-09-14T19:14:24.909Z,93.20
2017-09-14T19:16:52.670Z,93.20
2017-09-14T19:19:20.467Z,92.90
2017-09-14T19:21:48.998Z,92.90
2017-09-14T19:24:16.825Z,92.90
2017-09-14T19:26:44.588Z,92.30
2017-09-14T19:29:12.343Z,92.70
2017-09-14T19:31:40.232Z,92.70
2017-09-14T19:34:07.997Z,92.50
2017-09-14T19:36:35.839Z,92.70
2017-09-14T19:39:03.663Z,93.10
2017-09-14T19:41:31.441Z,92.30
2017-09-14T19:44:01.038Z,92.10
2017-09-14T19:46:29.562Z,92.10
2017-09-14T19:48:57.400Z,92.10
2017-09-14T19:51:25.158Z,92.00
2017-09-14T19:53:53.679Z,92.00
2017-09-14T19:56:21.483Z,92.00
2017-09-14T19:58:50.238Z,91.80
2017-09-14T20:01:18.060Z,91.80
2017-09-14T20:03:46.064Z,92.20
2017-09-14T20:06:13.865Z,91.60
2017-09-14T20:08:41.651Z,91.80
2017-09-14T20:11:09.462Z,92.20
2017-09-14T20:13:37.283Z,92.20
2017-09-14T20:16:05.084Z,92.30
2017-09-14T20:18:32.869Z,92.50
2017-09-14T20:21:00.690Z,92.00
2017-09-14T20:23:28.477Z,92.20
2017-09-14T20:25:56.305Z,91.90
2017-09-14T20:28:24.071Z,92.40
2017-09-14T20:30:52.638Z,92.40
2017-09-14T20:33:20.426Z,92.40
2017-09-14T20:35:48.181Z,92.50
2017-09-14T20:38:15.997Z,92.30
2017-09-14T20:40:44.533Z,92.80
2017-09-14T20:43:12.331Z,92.80
2017-09-14T20:45:40.154Z,92.90
2017-09-14T20:48:07.941Z,92.50
2017-09-14T20:50:35.757Z,92.50
2017-09-14T20:53:04.290Z,93.00
2017-09-14T20:55:32.054Z,93.00
2017-09-14T20:57:59.845Z,92.90
2017-09-14T21:00:27.599Z,93.10
2017-09-14T21:02:55.430Z,93.00
2017-09-14T21:05:23.193Z,92.90
2017-09-14T21:07:50.970Z,92.90
2017-09-14T21:10:19.545Z,92.90
2017-09-14T21:12:48.007Z,92.90
2017-09-14T21:15:15.824Z,93.00
2017-09-14T21:17:43.585Z,93.10
2017-09-14T21:20:11.341Z,92.90
2017-09-14T21:22:39.123Z,93.20
2017-09-14T21:25:06.878Z,92.80
2017-09-14T21:27:34.690Z,93.30
2017-09-14T21:30:02.469Z,93.10
2017-09-14T21:32:30.981Z,93.20
2017-09-14T21:34:58.768Z,93.20
2017-09-14T21:37:26.521Z,93.50
2017-09-14T21:39:54.338Z,93.80
2017-09-14T21:42:22.867Z,93.50
2017-09-14T21:44:50.631Z,93.50
2017-09-14T21:47:18.415Z,93.80
2017-09-14T21:49:46.179Z,94.20
2017-09-14T21:52:13.994Z,94.70
2017-09-14T21:54:41.750Z,94.80
2017-09-14T21:57:09.505Z,94.80
2017-09-14T21:59:37.812Z,94.80
2017-09-14T22:02:05.568Z,94.80
2017-09-14T22:04:33.383Z,94.50
2017-09-14T22:07:01.911Z,94.50
2017-09-14T22:09:29.673Z,94.50
2017-09-14T22:11:58.266Z,94.80
2017-09-14T22:14:26.965Z,94.90
2017-09-14T22:16:54.775Z,95.30
2017-09-14T22:19:22.528Z,95.30
2017-09-14T22:21:50.297Z,95.40
2017-09-14T22:24:18.093Z,95.40
2017-09-14T22:26:45.854Z,95.50
2017-09-14T22:29:14.432Z,95.70
2017-09-14T22:31:42.213Z,95.70
2017-09-14T22:34:09.980Z,95.90
2017-09-14T22:36:37.763Z,95.80
2017-09-14T22:39:06.278Z,96.10
2017-09-14T22:41:34.094Z,96.10
2017-09-14T22:44:01.859Z,96.10
2017-09-14T22:46:30.386Z,95.70
2017-09-14T22:48:58.175Z,95.70
2017-09-14T22:51:25.931Z,95.80
2017-09-14T22:53:53.748Z,95.90
2017-09-14T22:56:22.276Z,95.80
2017-09-14T22:58:50.038Z,95.80
2017-09-14T23:01:17.839Z,95.70
2017-09-14T23:03:46.360Z,95.80
2017-09-14T23:06:14.194Z,95.80
2017-09-14T23:08:41.959Z,96.30
2017-09-14T23:11:09.723Z,96.20
2017-09-14T23:13:37.525Z,96.30
2017-09-14T23:16:05.282Z,96.50
2017-09-14T23:18:33.092Z,96.10
2017-09-14T23:21:01.619Z,96.20
2017-09-14T23:23:29.400Z,96.20
2017-09-14T23:25:57.185Z,96.00
2017-09-14T23:28:25.715Z,96.10
2017-09-14T23:30:53.535Z,96.10
2017-09-14T23:33:21.307Z,96.50
2017-09-14T23:35:49.836Z,96.00
2017-09-14T23:38:17.622Z,96.00
2017-09-14T23:40:45.376Z,96.00
2017-09-14T23:43:13.367Z,95.60
2017-09-14T23:45:41.931Z,94.90
2017-09-14T23:48:09.685Z,94.80
2017-09-14T23:50:37.467Z,94.30
2017-09-14T23:53:05.995Z,94.00
2017-09-14T23:55:33.809Z,94.00
2017-09-14T23:58:02.381Z,93.70
